createdAt,value
2019-05-12T00:00:34.694Z,101985.47
2019-05-12T00:03:04.713Z,101995.86
2019-05-12T00:05:34.824Z,101985.02
2019-05-12T00:08:04.964Z,101986.73
2019-05-12T00:10:38.637Z,101989.33
2019-05-12T00:13:08.590Z,101995.77
2019-05-12T00:15:38.820Z,101997.95
2019-05-12T00:18:09.376Z,101997.06
2019-05-12T00:20:39.558Z,102005.70
2019-05-12T00:23:23.979Z,102005.70
2019-05-12T00:25:41.320Z,102011.30
2019-05-12T00:28:11.380Z,102016.48
2019-05-12T00:30:48.591Z,102021.20
2019-05-12T00:33:18.166Z,102028.92
2019-05-12T00:35:48.433Z,102040.18
2019-05-12T00:38:18.536Z,102041.91
2019-05-12T00:40:48.563Z,102046.67
2019-05-12T00:43:18.953Z,102053.56
2019-05-12T00:45:49.102Z,102058.76
2019-05-12T00:48:19.092Z,102060.05
2019-05-12T00:50:52.112Z,102069.98
2019-05-12T00:53:36.196Z,102074.69
2019-05-12T00:55:57.909Z,102078.98
2019-05-12T00:58:28.053Z,102083.27
2019-05-12T01:00:59.541Z,102089.36
2019-05-12T01:03:30.799Z,102091.95
2019-05-12T01:06:00.811Z,102088.47
2019-05-12T01:08:30.800Z,102096.30
2019-05-12T01:11:00.877Z,102104.48
2019-05-12T01:13:30.871Z,102109.19
2019-05-12T01:16:00.864Z,102114.38
2019-05-12T01:18:30.940Z,102115.22
2019-05-12T01:21:00.944Z,102120.38
2019-05-12T01:23:31.935Z,102119.90
2019-05-12T01:26:01.921Z,102118.98
2019-05-12T01:28:31.947Z,102122.38
2019-05-12T01:31:03.568Z,102117.64
2019-05-12T01:33:33.588Z,102125.41
2019-05-12T01:36:07.969Z,102134.84
2019-05-12T01:38:38.143Z,102139.11
2019-05-12T01:41:08.753Z,102142.94
2019-05-12T01:43:38.902Z,102151.95
2019-05-12T01:46:08.926Z,102153.62
2019-05-12T01:48:38.909Z,102161.36
2019-05-12T01:51:08.991Z,102168.23
2019-05-12T01:53:38.983Z,102167.80
2019-05-12T01:56:09.592Z,102169.49
2019-05-12T01:58:39.601Z,102176.37
2019-05-12T02:01:09.613Z,102183.27
2019-05-12T02:03:39.614Z,102191.03
2019-05-12T02:06:09.599Z,102193.21
2019-05-12T02:08:50.379Z,102193.23
2019-05-12T02:11:32.690Z,102198.41
2019-05-12T02:14:05.241Z,102203.47
2019-05-12T02:16:35.368Z,102204.77
2019-05-12T02:19:05.448Z,102208.12
2019-05-12T02:21:38.222Z,102218.47
2019-05-12T02:24:07.779Z,102211.58
2019-05-12T02:26:38.387Z,102218.92
2019-05-12T02:29:08.567Z,102216.73
2019-05-12T02:31:39.715Z,102223.63
2019-05-12T02:34:15.707Z,102225.77
2019-05-12T02:36:45.068Z,102231.34
2019-05-12T02:39:15.322Z,102233.05
2019-05-12T02:41:46.545Z,102239.55
2019-05-12T02:44:16.586Z,102235.16
2019-05-12T02:46:46.600Z,102241.61
2019-05-12T02:49:16.610Z,102244.56
2019-05-12T02:51:48.694Z,102249.74
2019-05-12T02:54:20.619Z,102252.30
2019-05-12T02:56:55.105Z,102253.53
2019-05-12T02:59:25.560Z,102256.97
2019-05-12T03:01:58.981Z,102271.20
2019-05-12T03:04:31.477Z,102272.48
2019-05-12T03:07:06.500Z,102274.02
2019-05-12T03:09:35.506Z,102268.84
2019-05-12T03:12:06.177Z,102273.58
2019-05-12T03:14:40.516Z,102277.87
2019-05-12T03:17:08.241Z,102279.56
2019-05-12T03:19:39.788Z,102275.23
2019-05-12T03:22:09.773Z,102276.05
2019-05-12T03:24:39.776Z,102287.23
2019-05-12T03:27:09.763Z,102288.78
2019-05-12T03:29:39.793Z,102290.50
2019-05-12T03:32:09.910Z,102289.62
2019-05-12T03:34:39.941Z,102290.56
2019-05-12T03:37:09.903Z,102300.87
2019-05-12T03:39:39.907Z,102310.78
2019-05-12T03:42:09.908Z,102316.02
2019-05-12T03:44:39.906Z,102308.63
2019-05-12T03:47:09.984Z,102305.59
2019-05-12T03:49:39.997Z,102314.19
2019-05-12T03:52:15.250Z,102316.78
2019-05-12T03:54:45.260Z,102310.28
2019-05-12T03:57:15.309Z,102323.66
2019-05-12T03:59:49.914Z,102323.23
2019-05-12T04:02:19.931Z,102327.98
2019-05-12T04:04:49.930Z,102331.98
2019-05-12T04:07:19.956Z,102334.14
2019-05-12T04:09:50.043Z,102337.60
2019-05-12T04:12:20.047Z,102346.79
2019-05-12T04:14:50.034Z,102346.38
2019-05-12T04:17:20.051Z,102351.11
2019-05-12T04:19:50.112Z,102356.33
2019-05-12T04:22:24.685Z,102366.77
2019-05-12T04:24:55.073Z,102366.81
2019-05-12T04:27:25.457Z,102364.23
2019-05-12T04:29:55.492Z,102364.27
2019-05-12T04:32:28.783Z,102368.16
2019-05-12T04:34:59.077Z,102373.80
2019-05-12T04:37:29.077Z,102379.08
2019-05-12T04:39:59.085Z,102376.07
2019-05-12T04:42:29.073Z,102381.31
2019-05-12T04:44:59.086Z,102393.36
2019-05-12T04:47:29.067Z,102401.30
2019-05-12T04:49:59.066Z,102406.95
2019-05-12T04:52:29.125Z,102407.83
2019-05-12T04:54:59.130Z,102409.05
2019-05-12T04:57:29.137Z,102415.66
2019-05-12T04:59:59.237Z,102419.14
2019-05-12T05:02:29.295Z,102424.52
2019-05-12T05:04:59.307Z,102428.92
2019-05-12T05:07:29.302Z,102435.12
2019-05-12T05:09:59.298Z,102441.33
2019-05-12T05:12:29.302Z,102443.94
2019-05-12T05:14:59.282Z,102440.97
2019-05-12T05:17:29.303Z,102441.48
2019-05-12T05:19:59.309Z,102442.42
2019-05-12T05:22:29.362Z,102452.88
2019-05-12T05:24:59.355Z,102452.93
2019-05-12T05:27:29.365Z,102450.83
2019-05-12T05:29:59.355Z,102457.47
2019-05-12T05:32:29.376Z,102464.08
2019-05-12T05:34:59.365Z,102464.30
2019-05-12T05:37:30.686Z,102470.88
2019-05-12T05:40:03.743Z,102476.97
2019-05-12T05:42:35.555Z,102482.28
2019-05-12T05:45:09.931Z,102485.92
2019-05-12T05:47:38.693Z,102484.78
2019-05-12T05:50:09.025Z,102489.66
2019-05-12T05:52:39.039Z,102492.75
2019-05-12T05:55:14.485Z,102491.50
2019-05-12T05:57:41.016Z,102499.82
2019-05-12T06:00:17.275Z,102508.23
2019-05-12T06:02:44.091Z,102510.03
2019-05-12T06:05:14.613Z,102515.30
2019-05-12T06:07:44.619Z,102519.28
2019-05-12T06:10:16.232Z,102515.02
2019-05-12T06:12:50.651Z,102511.20
2019-05-12T06:15:19.618Z,102516.44
2019-05-12T06:17:49.632Z,102521.67
2019-05-12T06:20:19.780Z,102522.23
2019-05-12T06:22:54.584Z,102520.98
2019-05-12T06:25:21.490Z,102521.04
2019-05-12T06:28:00.017Z,102524.11
2019-05-12T06:30:24.291Z,102527.67
2019-05-12T06:32:54.700Z,102520.88
2019-05-12T06:35:30.874Z,102524.78
2019-05-12T06:38:01.839Z,102528.31
2019-05-12T06:40:40.266Z,102527.52
2019-05-12T06:43:04.423Z,102533.25
2019-05-12T06:45:41.819Z,102545.94
2019-05-12T06:48:07.300Z,102541.17
2019-05-12T06:50:39.521Z,102543.05
2019-05-12T06:53:09.696Z,102541.28
2019-05-12T06:55:39.686Z,102546.14
2019-05-12T06:58:09.690Z,102541.81
2019-05-12T07:00:40.794Z,102552.30
2019-05-12T07:03:14.241Z,102554.12
2019-05-12T07:05:46.040Z,102558.92
2019-05-12T07:08:20.071Z,102561.10
2019-05-12T07:11:00.807Z,102563.76
2019-05-12T07:13:23.343Z,102567.67
2019-05-12T07:15:51.234Z,102570.28
2019-05-12T07:18:31.746Z,102578.16
2019-05-12T07:20:54.898Z,102575.98
2019-05-12T07:23:29.848Z,102575.56
2019-05-12T07:25:56.756Z,102583.41
2019-05-12T07:28:30.490Z,102583.83
2019-05-12T07:30:58.495Z,102589.91
2019-05-12T07:33:32.846Z,102586.42
2019-05-12T07:36:01.991Z,102587.30
2019-05-12T07:38:37.633Z,102587.73
2019-05-12T07:41:10.731Z,102583.38
2019-05-12T07:43:44.318Z,102582.87
2019-05-12T07:46:16.165Z,102586.73
2019-05-12T07:48:50.842Z,102593.27
2019-05-12T07:51:17.987Z,102591.61
2019-05-12T07:53:55.204Z,102591.61
2019-05-12T07:56:24.810Z,102596.30
2019-05-12T07:58:54.780Z,102596.30
2019-05-12T08:01:23.591Z,102595.50
2019-05-12T08:03:57.356Z,102598.42
2019-05-12T08:06:25.609Z,102596.58
2019-05-12T08:08:58.894Z,102609.92
2019-05-12T08:11:28.686Z,102609.40
2019-05-12T08:13:59.053Z,102613.41
2019-05-12T08:16:33.671Z,102613.07
2019-05-12T08:19:00.808Z,102610.47
2019-05-12T08:21:34.862Z,102617.23
2019-05-12T08:24:03.732Z,102611.84
2019-05-12T08:26:33.920Z,102618.12
2019-05-12T08:29:04.441Z,102615.89
2019-05-12T08:31:40.105Z,102613.95
2019-05-12T08:34:07.386Z,102611.73
2019-05-12T08:36:37.384Z,102616.28
2019-05-12T08:39:11.910Z,102617.47
2019-05-12T08:41:39.833Z,102616.27
2019-05-12T08:44:09.977Z,102617.23
2019-05-12T08:46:51.204Z,102616.19
2019-05-12T08:49:14.427Z,102622.28
2019-05-12T08:51:49.579Z,102621.36
2019-05-12T08:54:16.329Z,102621.70
2019-05-12T08:56:51.068Z,102616.74
2019-05-12T08:59:24.194Z,102617.80
2019-05-12T09:01:50.044Z,102618.27
2019-05-12T09:04:20.171Z,102616.48
2019-05-12T09:06:56.410Z,102620.27
2019-05-12T09:09:23.270Z,102624.58
2019-05-12T09:11:54.246Z,102614.52
2019-05-12T09:14:24.454Z,102616.89
2019-05-12T09:17:02.633Z,102623.02
2019-05-12T09:19:27.327Z,102634.52
2019-05-12T09:21:57.545Z,102628.33
2019-05-12T09:24:27.595Z,102630.35
2019-05-12T09:26:59.078Z,102627.80
2019-05-12T09:29:30.923Z,102635.39
2019-05-12T09:32:07.428Z,102630.93
2019-05-12T09:34:33.612Z,102623.77
2019-05-12T09:37:04.177Z,102630.61
2019-05-12T09:39:42.870Z,102627.02
2019-05-12T09:42:06.084Z,102621.22
2019-05-12T09:44:37.160Z,102631.71
2019-05-12T09:47:12.934Z,102624.20
2019-05-12T09:49:39.697Z,102631.11
2019-05-12T09:52:13.826Z,102628.67
2019-05-12T09:54:44.444Z,102640.78
2019-05-12T09:57:14.561Z,102635.18
2019-05-12T09:59:45.928Z,102641.80
2019-05-12T10:02:20.683Z,102645.62
2019-05-12T10:04:56.476Z,102634.44
2019-05-12T10:07:23.076Z,102634.28
2019-05-12T10:09:57.524Z,102630.48
2019-05-12T10:12:25.867Z,102640.80
2019-05-12T10:14:58.739Z,102640.56
2019-05-12T10:17:30.333Z,102653.83
2019-05-12T10:20:00.604Z,102657.08
2019-05-12T10:22:40.051Z,102654.84
2019-05-12T10:25:14.163Z,102642.92
2019-05-12T10:27:44.300Z,102653.31
2019-05-12T10:30:17.460Z,102658.60
2019-05-12T10:32:48.799Z,102658.69
2019-05-12T10:35:21.369Z,102656.96
2019-05-12T10:37:51.157Z,102651.20
2019-05-12T10:40:23.396Z,102655.16
2019-05-12T10:42:53.619Z,102650.63
2019-05-12T10:45:25.607Z,102650.02
2019-05-12T10:47:55.605Z,102648.96
2019-05-12T10:50:25.643Z,102661.89
2019-05-12T10:52:55.617Z,102662.97
2019-05-12T10:55:25.681Z,102666.88
2019-05-12T10:58:01.436Z,102671.56
2019-05-12T11:00:29.052Z,102671.97
2019-05-12T11:03:01.611Z,102673.14
2019-05-12T11:05:30.776Z,102672.92
2019-05-12T11:08:06.587Z,102665.14
2019-05-12T11:10:32.628Z,102672.23
2019-05-12T11:13:08.453Z,102677.26
2019-05-12T11:15:39.517Z,102684.98
2019-05-12T11:18:09.596Z,102684.50
2019-05-12T11:20:41.377Z,102689.83
2019-05-12T11:23:13.667Z,102692.20
2019-05-12T11:25:43.974Z,102696.00
2019-05-12T11:28:14.227Z,102682.44
2019-05-12T11:30:45.228Z,102679.38
2019-05-12T11:33:16.130Z,102680.48
2019-05-12T11:35:46.470Z,102693.61
2019-05-12T11:38:16.624Z,102709.30
2019-05-12T11:40:46.598Z,102702.51
2019-05-12T11:43:16.777Z,102701.14
2019-05-12T11:45:46.800Z,102700.45
2019-05-12T11:48:16.803Z,102689.39
2019-05-12T11:50:51.185Z,102686.56
2019-05-12T11:53:21.815Z,102693.55
2019-05-12T11:55:50.236Z,102693.03
2019-05-12T11:58:20.258Z,102702.42
2019-05-12T12:00:53.301Z,102707.41
2019-05-12T12:03:27.493Z,102708.59
2019-05-12T12:05:57.649Z,102706.33
2019-05-12T12:08:35.652Z,102700.89
2019-05-12T12:10:59.367Z,102712.61
2019-05-12T12:13:30.121Z,102712.52
2019-05-12T12:16:05.581Z,102721.97
2019-05-12T12:18:33.809Z,102721.70
2019-05-12T12:21:07.666Z,102721.34
2019-05-12T12:23:35.551Z,102717.61
2019-05-12T12:26:05.546Z,102717.19
2019-05-12T12:28:35.571Z,102735.68
2019-05-12T12:31:07.901Z,102738.72
2019-05-12T12:33:40.695Z,102734.22
2019-05-12T12:36:09.608Z,102739.70
2019-05-12T12:38:39.625Z,102734.64
2019-05-12T12:41:09.738Z,102736.45
2019-05-12T12:43:39.746Z,102732.50
2019-05-12T12:46:17.856Z,102729.54
2019-05-12T12:48:45.545Z,102739.41
2019-05-12T12:51:17.608Z,102747.43
2019-05-12T12:53:47.248Z,102742.16
2019-05-12T12:56:25.205Z,102755.61
2019-05-12T12:58:49.383Z,102756.88
2019-05-12T13:01:26.450Z,102753.39
2019-05-12T13:03:59.260Z,102757.23
2019-05-12T13:06:26.262Z,102749.16
2019-05-12T13:08:57.918Z,102749.77
2019-05-12T13:11:33.778Z,102758.69
2019-05-12T13:14:04.097Z,102763.56
2019-05-12T13:16:34.339Z,102766.33
2019-05-12T13:19:12.172Z,102769.80
2019-05-12T13:21:36.294Z,102775.33
2019-05-12T13:24:06.319Z,102775.46
2019-05-12T13:26:36.309Z,102770.56
2019-05-12T13:29:07.824Z,102768.93
2019-05-12T13:31:41.114Z,102764.63
2019-05-12T13:34:09.815Z,102769.05
2019-05-12T13:36:44.044Z,102776.59
2019-05-12T13:39:16.596Z,102775.63
2019-05-12T13:41:50.293Z,102777.52
2019-05-12T13:44:18.650Z,102788.30
2019-05-12T13:46:57.011Z,102788.69
2019-05-12T13:49:24.364Z,102790.71
2019-05-12T13:51:53.923Z,102794.41
2019-05-12T13:54:26.042Z,102796.77
2019-05-12T13:56:55.727Z,102795.59
2019-05-12T13:59:25.725Z,102799.84
2019-05-12T14:01:55.781Z,102798.80
2019-05-12T14:04:27.845Z,102803.47
2019-05-12T14:06:57.681Z,102810.45
2019-05-12T14:09:28.179Z,102817.34
2019-05-12T14:11:58.309Z,102810.91
2019-05-12T14:14:31.317Z,102800.14
2019-05-12T14:17:05.923Z,102808.27
2019-05-12T14:19:37.333Z,102806.18
2019-05-12T14:22:15.571Z,102802.06
2019-05-12T14:24:42.351Z,102804.31
2019-05-12T14:27:12.036Z,102808.50
2019-05-12T14:29:44.118Z,102809.56
2019-05-12T14:32:17.509Z,102810.22
2019-05-12T14:34:51.062Z,102814.11
2019-05-12T14:37:21.107Z,102819.70
2019-05-12T14:39:51.139Z,102820.59
2019-05-12T14:42:26.069Z,102820.77
2019-05-12T14:44:54.151Z,102819.00
2019-05-12T14:47:27.880Z,102819.34
2019-05-12T14:49:55.908Z,102817.30
2019-05-12T14:52:25.907Z,102821.22
2019-05-12T14:54:57.185Z,102818.55
2019-05-12T14:57:29.432Z,102822.13
2019-05-12T15:00:03.812Z,102822.32
2019-05-12T15:02:34.574Z,102821.27
2019-05-12T15:05:10.621Z,102824.86
2019-05-12T15:07:42.534Z,102820.45
2019-05-12T15:10:09.627Z,102830.78
2019-05-12T15:12:39.824Z,102826.98
2019-05-12T15:15:18.483Z,102832.31
2019-05-12T15:17:48.478Z,102821.93
2019-05-12T15:20:24.094Z,102826.28
2019-05-12T15:22:56.020Z,102829.42
2019-05-12T15:25:29.431Z,102836.87
2019-05-12T15:27:57.919Z,102844.73
2019-05-12T15:30:27.976Z,102842.06
2019-05-12T15:32:58.089Z,102837.23
2019-05-12T15:35:28.355Z,102830.28
2019-05-12T15:37:58.377Z,102834.36
2019-05-12T15:40:31.142Z,102843.28
2019-05-12T15:43:05.187Z,102841.14
2019-05-12T15:45:34.255Z,102839.58
2019-05-12T15:48:09.655Z,102842.02
2019-05-12T15:50:45.680Z,102845.63
2019-05-12T15:53:22.697Z,102838.88
2019-05-12T15:55:54.331Z,102849.05
2019-05-12T15:58:26.438Z,102855.22
2019-05-12T16:00:58.041Z,102860.73
2019-05-12T16:03:28.420Z,102858.17
2019-05-12T16:06:01.374Z,102861.00
2019-05-12T16:08:33.376Z,102864.95
2019-05-12T16:11:05.075Z,102860.03
2019-05-12T16:13:35.354Z,102859.12
2019-05-12T16:16:06.721Z,102869.72
2019-05-12T16:18:40.496Z,102867.91
2019-05-12T16:21:09.507Z,102871.86
2019-05-12T16:23:39.688Z,102876.66
2019-05-12T16:26:12.517Z,102874.37
2019-05-12T16:28:44.305Z,102875.98
2019-05-12T16:31:14.644Z,102870.55
2019-05-12T16:33:44.731Z,102873.64
2019-05-12T16:36:14.823Z,102885.64
2019-05-12T16:38:50.164Z,102889.41
2019-05-12T16:41:27.991Z,102898.20
2019-05-12T16:43:54.427Z,102904.27
2019-05-12T16:46:24.544Z,102902.38
2019-05-12T16:48:57.464Z,102894.50
2019-05-12T16:51:27.465Z,102902.75
2019-05-12T16:53:57.479Z,102905.53
2019-05-12T16:56:29.719Z,102918.34
2019-05-12T16:58:59.310Z,102917.95
2019-05-12T17:01:29.639Z,102929.80
2019-05-12T17:03:59.909Z,102916.34
2019-05-12T17:06:35.205Z,102918.51
2019-05-12T17:09:03.539Z,102920.66
2019-05-12T17:11:37.326Z,102925.55
2019-05-12T17:14:06.757Z,102932.08
2019-05-12T17:16:41.721Z,102929.96
2019-05-12T17:19:10.802Z,102937.97
2019-05-12T17:21:40.983Z,102933.64
2019-05-12T17:24:11.119Z,102937.17
2019-05-12T17:26:44.015Z,102943.80
2019-05-12T17:29:15.660Z,102949.50
2019-05-12T17:31:45.688Z,102944.30
2019-05-12T17:34:15.693Z,102954.01
2019-05-12T17:36:50.079Z,102955.34
2019-05-12T17:39:17.572Z,102960.12
2019-05-12T17:41:47.659Z,102960.58
2019-05-12T17:44:17.657Z,102961.89
2019-05-12T17:46:47.694Z,102973.28
2019-05-12T17:49:25.371Z,102972.47
2019-05-12T17:51:49.494Z,102970.77
2019-05-12T17:54:26.215Z,102980.84
2019-05-12T17:56:51.222Z,102983.92
2019-05-12T17:59:27.590Z,102986.08
2019-05-12T18:01:53.774Z,102988.73
2019-05-12T18:04:26.640Z,102981.31
2019-05-12T18:06:56.727Z,102990.06
2019-05-12T18:09:26.759Z,102997.03
2019-05-12T18:11:58.431Z,102997.47
2019-05-12T18:14:28.498Z,103005.78
2019-05-12T18:17:02.658Z,103011.86
2019-05-12T18:19:33.697Z,103014.05
2019-05-12T18:22:09.071Z,103006.17
2019-05-12T18:24:40.999Z,103014.45
2019-05-12T18:27:08.091Z,103015.28
2019-05-12T18:29:40.238Z,103021.34
2019-05-12T18:32:10.376Z,103028.77
2019-05-12T18:34:44.514Z,103029.19
2019-05-12T18:37:14.801Z,103033.53
2019-05-12T18:39:45.047Z,103031.38
2019-05-12T18:42:15.485Z,103036.56
2019-05-12T18:44:48.025Z,103044.83
2019-05-12T18:47:23.317Z,103047.41
2019-05-12T18:49:50.160Z,103047.39
2019-05-12T18:52:20.271Z,103051.31
2019-05-12T18:54:52.681Z,103067.36
2019-05-12T18:57:23.815Z,103065.17
2019-05-12T19:00:01.184Z,103070.34
2019-05-12T19:02:28.584Z,103073.35
2019-05-12T19:04:59.284Z,103069.42
2019-05-12T19:07:39.606Z,103076.77
2019-05-12T19:10:08.331Z,103076.70
2019-05-12T19:12:38.065Z,103070.15
2019-05-12T19:15:10.367Z,103082.62
2019-05-12T19:17:40.502Z,103082.62
2019-05-12T19:20:13.979Z,103088.75
2019-05-12T19:22:48.111Z,103095.66
2019-05-12T19:25:15.318Z,103101.28
2019-05-12T19:27:46.993Z,103101.63
2019-05-12T19:30:19.379Z,103109.85
2019-05-12T19:32:52.513Z,103113.34
2019-05-12T19:35:23.618Z,103104.98
2019-05-12T19:37:54.129Z,103113.56
2019-05-12T19:40:24.176Z,103123.91
2019-05-12T19:43:06.112Z,103128.57
2019-05-12T19:45:27.627Z,103125.55
2019-05-12T19:47:57.613Z,103124.64
2019-05-12T19:50:27.634Z,103135.87
2019-05-12T19:52:57.840Z,103136.33
2019-05-12T19:55:27.857Z,103130.63
2019-05-12T19:58:05.387Z,103138.39
2019-05-12T20:00:33.574Z,103140.56
2019-05-12T20:03:04.508Z,103145.23
2019-05-12T20:05:35.540Z,103141.59
2019-05-12T20:08:05.632Z,103147.27
2019-05-12T20:10:43.565Z,103152.37
2019-05-12T20:13:07.409Z,103153.62
2019-05-12T20:15:41.049Z,103152.32
2019-05-12T20:18:09.204Z,103157.09
2019-05-12T20:20:43.991Z,103159.61
2019-05-12T20:23:14.166Z,103161.67
2019-05-12T20:25:44.475Z,103167.28
2019-05-12T20:28:14.776Z,103162.82
2019-05-12T20:30:46.363Z,103164.50
2019-05-12T20:33:17.897Z,103169.61
2019-05-12T20:35:50.709Z,103174.76
2019-05-12T20:38:25.386Z,103172.51
2019-05-12T20:40:54.044Z,103174.19
2019-05-12T20:43:32.215Z,103181.56
2019-05-12T20:45:56.169Z,103179.71
2019-05-12T20:48:31.185Z,103177.46
2019-05-12T20:50:59.413Z,103183.89
2019-05-12T20:53:31.982Z,103187.32
2019-05-12T20:56:03.898Z,103190.20
2019-05-12T20:58:39.501Z,103197.53
2019-05-12T21:01:05.856Z,103203.48
2019-05-12T21:03:39.718Z,103204.65
2019-05-12T21:06:07.515Z,103206.81
2019-05-12T21:08:37.531Z,103212.34
2019-05-12T21:11:07.617Z,103210.16
2019-05-12T21:13:37.700Z,103219.05
2019-05-12T21:16:16.288Z,103221.29
2019-05-12T21:18:48.070Z,103227.58
2019-05-12T21:21:12.255Z,103230.41
2019-05-12T21:23:45.572Z,103226.51
2019-05-12T21:26:14.993Z,103230.66
2019-05-12T21:28:48.219Z,103232.79
2019-05-12T21:31:20.465Z,103237.36
2019-05-12T21:33:48.471Z,103232.48
2019-05-12T21:36:24.457Z,103239.34
2019-05-12T21:38:50.159Z,103236.27
2019-05-12T21:41:22.564Z,103244.52
2019-05-12T21:43:54.389Z,103251.45
2019-05-12T21:46:24.789Z,103247.97
2019-05-12T21:48:56.398Z,103250.45
2019-05-12T21:51:26.507Z,103251.59
2019-05-12T21:53:57.817Z,103252.84
2019-05-12T21:56:37.863Z,103254.20
2019-05-12T21:59:03.892Z,103253.70
2019-05-12T22:01:43.514Z,103258.48
2019-05-12T22:04:06.983Z,103258.30
2019-05-12T22:06:37.002Z,103265.72
2019-05-12T22:09:08.122Z,103262.20
2019-05-12T22:11:43.911Z,103263.12
2019-05-12T22:14:13.525Z,103260.39
2019-05-12T22:16:46.840Z,103263.38
2019-05-12T22:19:16.624Z,103262.58
2019-05-12T22:21:49.200Z,103264.33
2019-05-12T22:24:18.566Z,103260.30
2019-05-12T22:26:48.558Z,103264.52
2019-05-12T22:29:21.208Z,103265.84
2019-05-12T22:31:50.343Z,103265.91
2019-05-12T22:34:20.355Z,103269.91
2019-05-12T22:36:57.163Z,103265.19
2019-05-12T22:39:23.126Z,103270.73
2019-05-12T22:41:53.284Z,103274.91
2019-05-12T22:44:25.098Z,103271.23
2019-05-12T22:46:55.222Z,103270.79
2019-05-12T22:49:25.230Z,103269.81
2019-05-12T22:52:02.706Z,103274.50
2019-05-12T22:54:26.936Z,103277.98
2019-05-12T22:56:57.080Z,103277.06
2019-05-12T22:59:34.387Z,103281.68
2019-05-12T23:01:58.803Z,103278.60
2019-05-12T23:04:35.597Z,103285.85
2019-05-12T23:07:00.513Z,103286.16
2019-05-12T23:09:33.755Z,103287.80
2019-05-12T23:12:04.207Z,103288.14
2019-05-12T23:14:34.371Z,103293.64
2019-05-12T23:17:06.095Z,103291.42
2019-05-12T23:19:36.986Z,103289.61
2019-05-12T23:22:07.007Z,103293.88
2019-05-12T23:24:40.724Z,103291.63
2019-05-12T23:27:09.166Z,103290.66
2019-05-12T23:29:39.236Z,103295.89
2019-05-12T23:32:11.861Z,103295.38
2019-05-12T23:34:45.045Z,103295.78
2019-05-12T23:37:14.186Z,103294.81
2019-05-12T23:39:47.088Z,103298.49
2019-05-12T23:42:18.685Z,103304.02
2019-05-12T23:44:49.011Z,103307.91
2019-05-12T23:47:19.001Z,103299.53
2019-05-12T23:49:49.009Z,103300.46
2019-05-12T23:52:18.988Z,103303.77
2019-05-12T23:54:49.351Z,103297.16
2019-05-12T23:57:19.341Z,103300.94
2019-05-12T23:59:49.419Z,103297.83
